Time;durP1;ratioP1;P1;durP2;ratioP2;P2;SDS_P1;SDS_P2;PMS_P1;PMS_P2;Temp;Humidity;BMP_temperature;BMP_pressure;BME280_temperature;BME280_humidity;BME280_pressure;Samples;Min_cycle;Max_cycle;Signal;HPM_P1;HPM_P2
2022/06/02 00:02:21;;;;;;;9.13;5.30;;;22.40;99.90;;;;;;5050858;28;20476;-65
2022/06/02 00:04:58;;;;;;;6.83;4.73;;;22.30;99.90;;;;;;5050890;28;20537;-66
2022/06/02 00:07:33;;;;;;;9.17;5.40;;;22.30;99.90;;;;;;5049581;28;20500;-63
2022/06/02 00:10:07;;;;;;;8.83;4.40;;;22.20;99.90;;;;;;5049962;28;20449;-63
2022/06/02 00:12:41;;;;;;;12.53;5.17;;;22.10;99.90;;;;;;5049756;28;20469;-64
2022/06/02 00:15:23;;;;;;;9.33;4.87;;;22.10;99.90;;;;;;5049854;28;20529;-66
2022/06/02 00:18:03;;;;;;;7.87;5.03;;;22.10;99.90;;;;;;5033776;28;20481;-66
2022/06/02 00:20:38;;;;;;;8.60;4.87;;;22.00;99.90;;;;;;5049749;28;20457;-66
2022/06/02 00:23:23;;;;;;;9.80;5.20;;;22.00;99.90;;;;;;5049792;28;20477;-66
2022/06/02 00:26:00;;;;;;;13.67;4.60;;;22.00;99.90;;;;;;5050032;28;20938;-67
2022/06/02 00:28:33;;;;;;;10.73;4.70;;;22.10;99.90;;;;;;5050407;28;20453;-66
2022/06/02 00:31:13;;;;;;;7.77;4.43;;;22.00;99.90;;;;;;5049574;28;20477;-67
2022/06/02 00:33:50;;;;;;;7.90;4.60;;;22.00;99.90;;;;;;5050112;28;20461;-66
2022/06/02 00:36:26;;;;;;;13.17;4.90;;;22.00;99.90;;;;;;5049473;28;20450;-64
2022/06/02 00:38:56;;;;;;;9.83;4.70;;;22.00;99.90;;;;;;5050150;28;20468;-66
2022/06/02 00:41:32;;;;;;;6.00;3.70;;;21.80;99.90;;;;;;5049219;28;20478;-66
2022/06/02 00:44:11;;;;;;;8.90;5.47;;;21.80;99.90;;;;;;5049791;28;20446;-66
2022/06/02 00:46:55;;;;;;;10.80;4.90;;;21.70;99.90;;;;;;5049561;28;20450;-64
2022/06/02 00:49:34;;;;;;;7.07;4.70;;;21.80;99.90;;;;;;5049818;28;20458;-64
2022/06/02 00:52:14;;;;;;;7.80;4.70;;;21.70;99.90;;;;;;5049693;28;20470;-65
2022/06/02 00:57:45;;;;;;;7.20;5.10;;;21.60;99.90;;;;;;5030076;28;20478;-66
2022/06/02 01:00:17;;;;;;;8.63;5.40;;;21.50;99.90;;;;;;5029815;28;20453;-67
2022/06/02 01:02:53;;;;;;;9.53;4.90;;;21.40;99.90;;;;;;5029843;28;20467;-68
2022/06/02 01:05:36;;;;;;;7.97;4.47;;;21.50;99.90;;;;;;5029964;28;20900;-67
2022/06/02 01:08:16;;;;;;;9.97;4.60;;;21.70;99.90;;;;;;5039725;28;20496;-67
2022/06/02 01:11:01;;;;;;;6.53;4.50;;;21.70;99.90;;;;;;5049331;28;20454;-66
2022/06/02 01:13:46;;;;;;;9.30;5.10;;;21.60;99.90;;;;;;5029819;28;20450;-67
2022/06/02 01:16:19;;;;;;;8.13;4.50;;;21.70;99.90;;;;;;5040745;28;20536;-64
2022/06/02 01:18:58;;;;;;;8.97;5.07;;;21.60;99.90;;;;;;5049408;28;21072;-64
2022/06/02 01:22:11;;;;;;;7.43;4.70;;;21.70;99.90;;;;;;5049370;28;20474;-65
2022/06/02 01:25:13;;;;;;;8.53;5.33;;;21.50;99.90;;;;;;5029943;28;20459;-65
2022/06/02 01:28:22;;;;;;;7.17;4.90;;;21.40;99.90;;;;;;5038500;28;20460;-64
2022/06/02 01:30:59;;;;;;;7.40;4.60;;;21.40;99.90;;;;;;5007365;28;20449;-67
2022/06/02 01:33:37;;;;;;;6.40;4.90;;;21.30;99.90;;;;;;5048500;28;20449;-66
2022/06/02 01:36:14;;;;;;;11.67;5.33;;;21.30;99.90;;;;;;5048879;28;20450;-67
2022/06/02 01:38:51;;;;;;;6.87;4.30;;;21.30;99.90;;;;;;5048857;28;20485;-67
2022/06/02 01:41:27;;;;;;;9.63;4.80;;;21.30;99.90;;;;;;5048883;28;20780;-63
2022/06/02 01:44:03;;;;;;;7.00;4.50;;;21.30;99.90;;;;;;5048286;28;20475;-66
2022/06/02 01:46:53;;;;;;;6.20;3.60;;;21.20;99.90;;;;;;5048650;28;20450;-65
2022/06/02 01:49:33;;;;;;;5.63;4.03;;;21.00;99.90;;;;;;5034630;28;20480;-63
2022/06/02 01:52:18;;;;;;;8.27;4.70;;;20.80;99.90;;;;;;5048339;28;20461;-64
2022/06/02 01:54:57;;;;;;;9.03;4.20;;;20.80;99.90;;;;;;5048733;28;20839;-66
2022/06/02 01:57:42;;;;;;;7.60;4.90;;;20.80;99.90;;;;;;5048378;28;20485;-65
2022/06/02 02:00:12;;;;;;;7.40;4.33;;;20.80;99.90;;;;;;5039132;28;20468;-66
2022/06/02 02:02:54;;;;;;;7.77;4.37;;;20.80;99.90;;;;;;5049155;28;20443;-64
2022/06/02 02:05:38;;;;;;;6.20;3.90;;;20.80;99.90;;;;;;5048995;28;20508;-65
2022/06/02 02:08:20;;;;;;;8.83;4.87;;;20.70;99.90;;;;;;5048964;28;20567;-65
2022/06/02 02:10:58;;;;;;;6.10;4.20;;;20.70;99.90;;;;;;5048944;28;20568;-63
2022/06/02 02:13:35;;;;;;;6.40;4.40;;;20.80;99.90;;;;;;5049230;28;20456;-63
2022/06/02 02:16:16;;;;;;;9.40;4.27;;;20.80;99.90;;;;;;5049140;28;20446;-65
2022/06/02 02:18:54;;;;;;;7.67;4.70;;;20.80;99.90;;;;;;5049060;28;20481;-63
2022/06/02 02:21:28;;;;;;;5.60;4.00;;;20.80;99.90;;;;;;5048497;28;20458;-65
2022/06/02 02:24:09;;;;;;;6.00;4.37;;;20.70;99.90;;;;;;5048037;28;20972;-64
2022/06/02 02:26:42;;;;;;;8.63;4.27;;;20.70;99.90;;;;;;5038494;28;20465;-66
2022/06/02 02:29:21;;;;;;;7.73;4.43;;;20.70;99.90;;;;;;5048195;28;20458;-64
2022/06/02 02:32:00;;;;;;;9.87;5.20;;;20.70;99.90;;;;;;5048436;28;20465;-65
2022/06/02 02:34:43;;;;;;;7.20;4.70;;;20.80;99.90;;;;;;5045181;28;21080;-64
2022/06/02 02:37:15;;;;;;;9.40;4.90;;;20.90;99.90;;;;;;5048862;28;20531;-66
2022/06/02 02:39:52;;;;;;;10.20;4.70;;;20.90;99.90;;;;;;5048698;28;20579;-66
2022/06/02 02:42:27;;;;;;;6.97;4.87;;;20.80;99.90;;;;;;5048105;28;20449;-66
2022/06/02 02:45:08;;;;;;;7.93;4.70;;;20.80;99.90;;;;;;5047865;28;20456;-63
2022/06/02 02:47:42;;;;;;;9.37;5.83;;;20.70;99.90;;;;;;5052168;28;20564;-64
2022/06/02 02:50:20;;;;;;;8.60;5.80;;;20.30;99.90;;;;;;5052029;28;20477;-64
2022/06/02 02:52:56;;;;;;;10.60;5.33;;;20.00;99.90;;;;;;5051533;28;20788;-65
2022/06/02 02:55:29;;;;;;;16.40;6.97;;;19.70;99.90;;;;;;5052225;28;20480;-64
2022/06/02 02:58:02;;;;;;;9.60;5.90;;;19.80;99.90;;;;;;5051484;28;20489;-62
2022/06/02 03:00:36;;;;;;;7.43;6.10;;;19.80;99.90;;;;;;5052379;28;20473;-65
2022/06/02 03:03:09;;;;;;;9.40;5.90;;;19.90;99.90;;;;;;5051942;28;20449;-65
2022/06/02 03:05:59;;;;;;;8.00;5.60;;;19.70;99.90;;;;;;5051960;28;20449;-66
2022/06/02 03:08:37;;;;;;;11.47;5.83;;;19.50;99.90;;;;;;5051510;28;20560;-63
2022/06/02 03:11:21;;;;;;;8.37;5.23;;;19.60;99.90;;;;;;5051400;28;20465;-65
2022/06/02 03:13:57;;;;;;;11.87;6.33;;;19.70;99.90;;;;;;5051758;28;21003;-66
2022/06/02 03:16:25;;;;;;;9.57;5.90;;;19.80;99.90;;;;;;5051138;28;20462;-66
2022/06/02 03:19:02;;;;;;;11.33;7.87;;;19.90;99.90;;;;;;5051678;28;20481;-65
2022/06/02 03:21:34;;;;;;;10.20;6.87;;;20.00;99.90;;;;;;5051891;28;20463;-65
2022/06/02 03:24:28;;;;;;;9.50;5.90;;;20.00;99.90;;;;;;5051409;28;20454;-63
2022/06/02 03:27:11;;;;;;;11.07;5.60;;;20.10;99.90;;;;;;5051379;28;20461;-65
2022/06/02 03:29:52;;;;;;;10.40;6.87;;;20.10;99.90;;;;;;5050795;28;20473;-66
2022/06/02 03:32:37;;;;;;;11.80;6.57;;;20.20;99.90;;;;;;5050829;28;20485;-64
2022/06/02 03:35:14;;;;;;;9.73;5.30;;;20.40;99.90;;;;;;5051129;28;20950;-63
2022/06/02 03:37:51;;;;;;;7.47;4.77;;;20.60;99.90;;;;;;5050800;28;20987;-63
2022/06/02 03:40:50;;;;;;;8.40;5.87;;;20.60;99.90;;;;;;5051038;28;20485;-65
2022/06/02 03:43:27;;;;;;;8.67;6.10;;;20.60;99.90;;;;;;5050974;28;20453;-66
2022/06/02 03:46:06;;;;;;;8.30;6.27;;;20.60;99.90;;;;;;5050436;28;20454;-66
2022/06/02 03:48:49;;;;;;;9.47;6.30;;;20.70;99.90;;;;;;5051434;28;20434;-63
2022/06/02 03:51:27;;;;;;;10.27;6.87;;;20.70;99.90;;;;;;5051284;28;20462;-65
2022/06/02 03:54:23;;;;;;;9.33;5.97;;;20.40;99.90;;;;;;5051410;28;20536;-66
2022/06/02 03:57:08;;;;;;;11.00;7.07;;;20.30;99.90;;;;;;5049997;28;20450;-67
2022/06/02 03:59:55;;;;;;;9.90;5.80;;;20.70;99.90;;;;;;5050334;28;20488;-65
2022/06/02 04:02:29;;;;;;;9.83;7.07;;;20.90;99.90;;;;;;5050208;28;20874;-65
2022/06/02 04:05:15;;;;;;;8.33;6.20;;;21.00;99.90;;;;;;5050900;28;20482;-66
2022/06/02 04:07:53;;;;;;;8.07;5.83;;;21.10;99.90;;;;;;5050330;28;20495;-66
2022/06/02 04:10:33;;;;;;;14.30;6.30;;;21.10;99.90;;;;;;5049850;28;20873;-67
2022/06/02 04:16:42;;;;;;;11.07;7.13;;;21.10;99.90;;;;;;5049381;28;20510;-65
2022/06/02 04:22:43;;;;;;;14.70;7.60;;;21.30;99.90;;;;;;5042676;28;20543;-67
2022/06/02 04:25:20;;;;;;;9.60;7.50;;;21.30;99.90;;;;;;5050641;28;20500;-64
2022/06/02 04:27:57;;;;;;;9.90;7.33;;;21.30;99.90;;;;;;5050801;28;20493;-65
2022/06/02 04:30:34;;;;;;;12.07;6.80;;;21.40;99.90;;;;;;5050583;28;20480;-62
2022/06/02 04:33:10;;;;;;;14.17;7.73;;;21.60;99.90;;;;;;5050667;28;20468;-65
2022/06/02 04:35:45;;;;;;;11.37;6.60;;;21.60;99.90;;;;;;5049346;28;20446;-68
2022/06/02 04:38:21;;;;;;;11.57;7.43;;;21.60;99.90;;;;;;5049603;28;20492;-66
2022/06/02 04:40:59;;;;;;;9.93;6.80;;;21.60;99.90;;;;;;5050094;28;20557;-65
2022/06/02 04:43:38;;;;;;;9.20;6.90;;;21.50;99.90;;;;;;5050257;28;20492;-66
2022/06/02 04:46:17;;;;;;;11.70;8.20;;;21.60;99.90;;;;;;5045566;28;20458;-65
2022/06/02 04:48:53;;;;;;;11.17;7.20;;;21.70;99.90;;;;;;5041192;28;20461;-65
2022/06/02 04:51:30;;;;;;;11.50;9.37;;;21.80;99.90;;;;;;5049656;28;20477;-68
2022/06/02 04:54:05;;;;;;;10.67;8.57;;;21.80;99.90;;;;;;5049013;28;20871;-65
2022/06/02 04:56:41;;;;;;;10.90;9.07;;;21.80;99.90;;;;;;5048881;28;20457;-66
2022/06/02 04:59:16;;;;;;;10.60;9.07;;;21.90;99.90;;;;;;5039882;28;20816;-67
2022/06/02 05:01:58;;;;;;;12.33;9.70;;;21.90;99.90;;;;;;5049970;28;20462;-65
2022/06/02 05:04:35;;;;;;;13.70;8.77;;;21.70;99.90;;;;;;5029639;28;20517;-64
2022/06/02 05:07:13;;;;;;;14.37;8.53;;;21.60;99.90;;;;;;5029187;28;20465;-63
2022/06/02 05:09:47;;;;;;;13.60;9.30;;;21.50;99.90;;;;;;5029851;28;20467;-63
2022/06/02 05:12:28;;;;;;;12.70;9.73;;;21.60;99.90;;;;;;5034555;28;20450;-65
2022/06/02 05:15:07;;;;;;;16.93;8.90;;;21.80;99.90;;;;;;5043513;28;20458;-63
2022/06/02 05:18:14;;;;;;;12.33;9.00;;;21.70;99.90;;;;;;5043515;28;20768;-66
2022/06/02 05:21:20;;;;;;;11.20;7.87;;;21.80;99.90;;;;;;5022028;28;20475;-67
2022/06/02 05:24:20;;;;;;;13.80;8.63;;;22.00;99.90;;;;;;5035716;28;20449;-66
2022/06/02 05:27:19;;;;;;;9.97;8.33;;;22.10;99.90;;;;;;5049463;28;20859;-64
2022/06/02 05:30:12;;;;;;;14.33;8.83;;;22.30;99.90;;;;;;5048814;28;20485;-64
2022/06/02 05:33:06;;;;;;;7.70;6.40;;;22.50;99.90;;;;;;5047953;28;20461;-65
2022/06/02 05:36:06;;;;;;;11.60;9.47;;;22.80;99.90;;;;;;5038398;28;20946;-65
2022/06/02 05:38:45;;;;;;;13.83;7.87;;;23.00;99.90;;;;;;5048714;28;20485;-67
2022/06/02 05:41:31;;;;;;;9.80;7.40;;;23.20;99.90;;;;;;5046409;28;20909;-69
2022/06/02 05:44:09;;;;;;;10.33;8.47;;;23.30;99.90;;;;;;5046747;28;20570;-77
2022/06/02 05:46:54;;;;;;;12.30;8.47;;;23.10;99.90;;;;;;5047243;28;20461;-65
2022/06/02 05:49:31;;;;;;;9.87;7.80;;;22.90;99.90;;;;;;5047902;28;20489;-67
2022/06/02 05:52:08;;;;;;;9.93;7.60;;;23.30;99.90;;;;;;5048444;28;20453;-67
2022/06/02 05:54:48;;;;;;;14.13;9.93;;;23.40;99.90;;;;;;5048933;28;20547;-67
2022/06/02 05:57:31;;;;;;;16.23;8.43;;;23.60;99.90;;;;;;5049060;28;20773;-70
2022/06/02 06:00:06;;;;;;;14.50;9.37;;;23.80;99.90;;;;;;5048781;28;20873;-63
2022/06/02 06:03:04;;;;;;;12.97;8.67;;;24.00;99.90;;;;;;5048927;28;20483;-64
2022/06/02 06:05:42;;;;;;;16.27;9.30;;;24.20;99.90;;;;;;5048907;28;21041;-66
2022/06/02 06:08:34;;;;;;;10.53;9.23;;;24.30;99.90;;;;;;5048241;28;20477;-66
2022/06/02 06:11:17;;;;;;;11.87;9.07;;;24.10;99.90;;;;;;5048840;28;20493;-66
2022/06/02 06:14:06;;;;;;;14.30;9.57;;;24.00;99.90;;;;;;5048878;28;20453;-66
2022/06/02 06:16:39;;;;;;;14.07;9.40;;;24.30;99.90;;;;;;5048282;28;20453;-67
2022/06/02 06:19:24;;;;;;;18.00;10.57;;;24.30;99.90;;;;;;5049118;28;20493;-67
2022/06/02 06:22:07;;;;;;;12.30;9.30;;;24.60;99.90;;;;;;5052724;28;20514;-65
2022/06/02 06:25:05;;;;;;;14.30;9.40;;;24.60;99.90;;;;;;5052866;28;20548;-66
2022/06/02 06:27:38;;;;;;;14.03;9.03;;;24.70;99.90;;;;;;5052506;28;21036;-66
2022/06/02 06:30:11;;;;;;;14.67;9.73;;;24.90;99.90;;;;;;5052791;28;20470;-65
2022/06/02 06:32:47;;;;;;;17.00;9.87;;;24.80;99.90;;;;;;5052646;28;20506;-67
2022/06/02 06:35:41;;;;;;;20.87;10.20;;;24.80;99.90;;;;;;5051885;28;20453;-66
2022/06/02 06:38:22;;;;;;;9.83;8.00;;;24.90;99.90;;;;;;5052648;28;20453;-67
2022/06/02 06:41:11;;;;;;;13.60;9.70;;;25.10;99.90;;;;;;5052330;28;20848;-66
2022/06/02 06:43:57;;;;;;;12.57;8.33;;;25.20;99.90;;;;;;5052536;28;20934;-66
2022/06/02 06:46:26;;;;;;;13.93;8.70;;;25.30;99.90;;;;;;5052474;28;20453;-67
2022/06/02 06:49:12;;;;;;;14.10;9.83;;;25.50;99.90;;;;;;5052118;28;20438;-65
2022/06/02 06:51:49;;;;;;;15.03;9.00;;;25.40;99.90;;;;;;5052347;28;20477;-65
2022/06/02 06:54:30;;;;;;;13.37;8.27;;;25.50;99.90;;;;;;5052259;28;20480;-68
2022/06/02 06:57:03;;;;;;;13.70;10.13;;;25.80;99.90;;;;;;5052176;28;20450;-68
2022/06/02 06:59:39;;;;;;;13.03;7.73;;;25.80;99.90;;;;;;5051979;28;20841;-67
2022/06/02 07:02:18;;;;;;;14.03;8.20;;;26.10;99.90;;;;;;5051596;28;20566;-67
2022/06/02 07:04:53;;;;;;;10.67;7.80;;;26.40;99.90;;;;;;5052147;28;20485;-66
2022/06/02 07:07:28;;;;;;;11.20;6.90;;;26.60;99.90;;;;;;5051455;28;20499;-65
2022/06/02 07:10:01;;;;;;;12.23;8.23;;;26.90;99.90;;;;;;5051655;28;20914;-66
2022/06/02 07:12:53;;;;;;;10.57;7.57;;;27.00;99.90;;;;;;5051785;28;20844;-67
2022/06/02 07:15:34;;;;;;;14.60;8.70;;;27.10;99.90;;;;;;5051506;28;20458;-66
2022/06/02 07:18:08;;;;;;;13.33;8.10;;;27.30;99.90;;;;;;5051561;28;20545;-66
2022/06/02 07:20:41;;;;;;;19.17;7.37;;;27.50;99.90;;;;;;5051549;28;20485;-66
2022/06/02 07:23:14;;;;;;;13.27;6.53;;;27.70;99.90;;;;;;5051839;28;20446;-69
2022/06/02 07:25:53;;;;;;;13.83;7.47;;;27.80;99.90;;;;;;5051208;28;20938;-66
2022/06/02 07:28:30;;;;;;;13.73;6.27;;;27.90;99.90;;;;;;5051687;28;20851;-66
2022/06/02 07:31:10;;;;;;;9.40;7.40;;;28.20;99.90;;;;;;5050026;28;20477;-68
2022/06/02 07:33:52;;;;;;;10.87;6.83;;;28.40;99.90;;;;;;5051372;28;20481;-67
2022/06/02 07:36:47;;;;;;;12.53;6.50;;;28.50;99.90;;;;;;5051397;28;20533;-66
2022/06/02 07:39:52;;;;;;;11.47;7.47;;;28.60;99.90;;;;;;5051086;28;20545;-66
2022/06/02 07:42:40;;;;;;;10.47;6.80;;;28.70;99.90;;;;;;5051145;28;20831;-66
2022/06/02 07:45:31;;;;;;;10.93;6.10;;;28.80;99.90;;;;;;5050966;28;20446;-66
2022/06/02 07:48:40;;;;;;;11.27;8.67;;;28.70;99.90;;;;;;5051494;28;20818;-67
2022/06/02 07:51:18;;;;;;;11.10;7.67;;;28.80;99.90;;;;;;4988992;28;20518;-67
2022/06/02 07:54:16;;;;;;;12.63;6.30;;;29.10;99.90;;;;;;5046546;28;20888;-67
2022/06/02 07:56:52;;;;;;;8.90;6.60;;;29.10;99.90;;;;;;5051098;28;20965;-67
2022/06/02 07:59:33;;;;;;;9.33;5.70;;;29.20;99.90;;;;;;5050602;28;20538;-66
2022/06/02 08:02:27;;;;;;;12.00;5.73;;;29.30;99.90;;;;;;5050608;28;20953;-66
2022/06/02 08:05:04;;;;;;;10.90;6.77;;;29.20;99.90;;;;;;5051005;28;20457;-66
2022/06/02 08:07:38;;;;;;;13.77;6.13;;;29.40;99.90;;;;;;5050018;28;20496;-66
2022/06/02 08:10:17;;;;;;;9.17;5.60;;;29.60;99.90;;;;;;5050508;28;20450;-66
2022/06/02 08:12:53;;;;;;;7.57;5.40;;;29.70;99.90;;;;;;5050625;28;20564;-67
2022/06/02 08:15:38;;;;;;;9.57;5.70;;;29.80;99.40;;;;;;5050691;28;20548;-66
2022/06/02 08:18:18;;;;;;;10.13;5.27;;;29.80;99.00;;;;;;5050363;28;20824;-66
2022/06/02 08:20:56;;;;;;;8.67;5.47;;;29.90;98.40;;;;;;5050119;28;20903;-67
2022/06/02 08:24:13;;;;;;;9.70;5.43;;;30.10;99.10;;;;;;5050586;28;20449;-66
2022/06/02 08:26:48;;;;;;;9.70;6.30;;;30.20;98.60;;;;;;4988484;28;20452;-67
2022/06/02 08:29:30;;;;;;;11.63;6.23;;;30.30;97.40;;;;;;4988309;28;20822;-66
2022/06/02 08:32:22;;;;;;;8.50;5.37;;;30.10;97.70;;;;;;5031734;28;20466;-66
2022/06/02 08:35:04;;;;;;;9.87;5.70;;;29.80;97.00;;;;;;5049737;28;20461;-67
2022/06/02 08:37:41;;;;;;;11.63;6.13;;;29.80;97.40;;;;;;5050217;28;20457;-68
2022/06/02 08:40:39;;;;;;;9.70;6.03;;;30.00;97.50;;;;;;5050098;28;20551;-64
2022/06/02 08:43:33;;;;;;;9.50;5.60;;;30.30;97.00;;;;;;5047262;28;20461;-64
2022/06/02 08:46:34;;;;;;;12.33;4.43;;;30.50;96.90;;;;;;5049682;28;20450;-65
2022/06/02 08:49:22;;;;;;;14.13;5.43;;;30.70;96.20;;;;;;5049900;28;20457;-63
2022/06/02 08:52:22;;;;;;;8.40;4.93;;;30.80;96.30;;;;;;5029909;28;20541;-64
2022/06/02 08:55:25;;;;;;;9.40;4.80;;;31.00;95.30;;;;;;5049359;28;20453;-65
2022/06/02 08:58:39;;;;;;;6.40;3.37;;;31.30;94.80;;;;;;5049677;28;20978;-66
2022/06/02 09:01:15;;;;;;;9.33;5.10;;;31.30;91.00;;;;;;5026254;28;20529;-64
2022/06/02 09:04:15;;;;;;;6.73;3.83;;;31.30;90.20;;;;;;5048010;28;20450;-65
2022/06/02 09:07:30;;;;;;;8.40;4.27;;;31.50;90.20;;;;;;5035236;28;21157;-63
2022/06/02 09:10:25;;;;;;;6.90;3.93;;;31.70;90.70;;;;;;5030828;28;20461;-64
2022/06/02 09:13:33;;;;;;;5.40;3.40;;;31.70;89.30;;;;;;5048872;28;20470;-65
2022/06/02 09:16:24;;;;;;;6.60;3.90;;;31.80;80.20;;;;;;5049423;28;20640;-65
2022/06/02 09:19:11;;;;;;;6.93;3.50;;;31.90;77.80;;;;;;5048503;28;20525;-63
2022/06/02 09:21:59;;;;;;;7.23;4.27;;;31.70;72.50;;;;;;5029763;28;20466;-64
2022/06/02 09:24:28;;;;;;;9.53;4.00;;;31.60;75.50;;;;;;5040138;28;20453;-64
2022/06/02 09:27:21;;;;;;;8.50;4.07;;;31.70;77.40;;;;;;5049030;28;20446;-63
2022/06/02 09:29:50;;;;;;;7.30;3.93;;;31.80;77.40;;;;;;5015727;28;21245;-65
2022/06/02 09:32:35;;;;;;;5.73;2.90;;;31.80;71.00;;;;;;5031003;28;20471;-64
2022/06/02 09:35:11;;;;;;;7.07;4.20;;;31.90;72.90;;;;;;5049591;28;20851;-63
2022/06/02 09:38:05;;;;;;;8.40;3.77;;;32.10;72.20;;;;;;5049416;28;20456;-63
2022/06/02 09:40:46;;;;;;;6.20;3.80;;;32.30;71.00;;;;;;5049376;28;20489;-65
2022/06/02 09:43:52;;;;;;;8.77;7.43;;;32.70;68.10;;;;;;5040346;28;20542;-65
2022/06/02 09:47:00;;;;;;;9.90;3.10;;;32.70;57.90;;;;;;5029479;28;20446;-64
2022/06/02 09:49:47;;;;;;;10.47;2.70;;;32.90;58.50;;;;;;5030557;28;20464;-64
2022/06/02 09:52:27;;;;;;;4.50;2.20;;;32.90;56.50;;;;;;5029488;28;21364;-63
2022/06/02 09:55:21;;;;;;;11.63;3.17;;;32.30;55.90;;;;;;5031476;28;20454;-63
2022/06/02 09:58:11;;;;;;;6.57;3.50;;;32.30;55.90;;;;;;5033475;28;20458;-64
2022/06/02 10:00:59;;;;;;;6.40;3.30;;;32.50;58.70;;;;;;5040376;28;20592;-63
2022/06/02 10:03:55;;;;;;;5.70;3.23;;;32.60;59.40;;;;;;5053885;28;20442;-64
2022/06/02 10:06:45;;;;;;;6.63;2.60;;;32.80;56.90;;;;;;5049336;28;20453;-64
2022/06/02 10:09:25;;;;;;;8.27;3.13;;;32.90;51.50;;;;;;5052740;28;20485;-65
2022/06/02 10:15:14;;;;;;;7.70;3.37;;;33.30;54.90;;;;;;5052515;28;20838;-65
2022/06/02 10:18:29;;;;;;;8.10;3.03;;;33.40;54.00;;;;;;5052977;28;20537;-65
2022/06/02 10:21:21;;;;;;;11.70;3.03;;;33.20;51.20;;;;;;5051565;28;20500;-65
2022/06/02 10:24:24;;;;;;;8.57;3.37;;;33.00;53.80;;;;;;5052718;28;20454;-64
2022/06/02 10:27:12;;;;;;;8.63;4.07;;;33.10;53.20;;;;;;5035330;28;20450;-64
2022/06/02 10:30:20;;;;;;;7.93;3.00;;;33.20;50.90;;;;;;5046692;28;20957;-64
2022/06/02 10:33:22;;;;;;;12.00;3.60;;;33.40;50.60;;;;;;5052615;28;20564;-65
2022/06/02 10:36:27;;;;;;;10.20;3.90;;;33.40;50.00;;;;;;5052246;28;20496;-63
2022/06/02 10:39:32;;;;;;;11.23;3.73;;;33.20;50.10;;;;;;5036549;28;20446;-63
2022/06/02 10:42:13;;;;;;;9.50;4.40;;;33.30;50.60;;;;;;5052214;28;20530;-65
2022/06/02 10:45:19;;;;;;;6.10;3.23;;;33.60;51.80;;;;;;5052299;28;20452;-64
2022/06/02 10:48:20;;;;;;;7.00;3.13;;;33.90;52.20;;;;;;5052065;28;20445;-64
2022/06/02 10:51:16;;;;;;;8.10;2.87;;;34.40;52.30;;;;;;5051715;28;20454;-65
2022/06/02 10:54:09;;;;;;;10.50;3.57;;;34.50;52.20;;;;;;5052084;28;20780;-64
2022/06/02 10:57:04;;;;;;;8.73;3.10;;;34.70;52.70;;;;;;5052110;28;20536;-69
2022/06/02 11:00:20;;;;;;;5.80;2.90;;;34.90;52.40;;;;;;5051807;28;20446;-67
2022/06/02 11:03:38;;;;;;;8.60;3.10;;;35.00;50.80;;;;;;5009401;28;20475;-65
2022/06/02 11:06:44;;;;;;;9.77;2.83;;;35.10;52.00;;;;;;5051121;28;20482;-67
2022/06/02 11:09:56;;;;;;;9.07;4.27;;;35.00;49.70;;;;;;5051579;28;21553;-67
2022/06/02 11:13:15;;;;;;;7.70;3.07;;;35.00;51.40;;;;;;5051906;28;20474;-64
2022/06/02 11:16:24;;;;;;;8.13;3.80;;;35.20;49.40;;;;;;5051750;28;20453;-67
2022/06/02 11:19:18;;;;;;;7.40;3.50;;;35.20;49.70;;;;;;5048970;28;20489;-67
2022/06/02 11:22:20;;;;;;;9.60;3.70;;;35.40;50.00;;;;;;5020635;28;20497;-64
2022/06/02 11:25:26;;;;;;;6.23;3.07;;;35.60;50.10;;;;;;5030051;28;20453;-68
2022/06/02 11:28:28;;;;;;;7.27;3.83;;;35.90;50.70;;;;;;4989256;28;21015;-66
2022/06/02 11:31:35;;;;;;;6.90;3.37;;;35.90;52.10;;;;;;5039325;28;20473;-65
2022/06/02 11:34:17;;;;;;;6.97;3.43;;;35.70;49.80;;;;;;5035093;28;20469;-66
2022/06/02 11:37:21;;;;;;;6.60;3.40;;;35.20;50.40;;;;;;5050694;28;20450;-65
2022/06/02 11:40:20;;;;;;;6.90;3.60;;;35.50;51.70;;;;;;5052075;28;20450;-65
2022/06/02 11:42:57;;;;;;;8.70;3.10;;;35.60;50.60;;;;;;5053689;28;20466;-64
2022/06/02 11:45:51;;;;;;;7.37;3.93;;;35.60;51.40;;;;;;5052074;28;20457;-67
2022/06/02 11:48:39;;;;;;;6.27;3.27;;;35.80;51.00;;;;;;5047284;28;20922;-66
2022/06/02 11:51:41;;;;;;;7.03;4.90;;;36.00;49.60;;;;;;5031293;28;20983;-66
2022/06/02 11:54:39;;;;;;;6.40;4.00;;;36.00;51.40;;;;;;5026422;28;20469;-66
2022/06/02 11:57:39;;;;;;;6.30;4.07;;;36.30;52.20;;;;;;5050820;28;20931;-68
2022/06/02 12:00:24;;;;;;;8.17;4.33;;;36.60;52.00;;;;;;5051129;28;20468;-63
2022/06/02 12:03:23;;;;;;;8.00;6.50;;;36.70;51.70;;;;;;5050893;28;20474;-65
2022/06/02 12:06:31;;;;;;;10.50;6.93;;;37.00;51.20;;;;;;5045542;28;20485;-68
2022/06/02 12:09:35;;;;;;;11.60;9.00;;;36.70;52.20;;;;;;5050266;28;20577;-66
2022/06/02 12:12:41;;;;;;;9.33;5.30;;;36.30;50.70;;;;;;5050449;28;20461;-66
2022/06/02 12:15:36;;;;;;;12.87;5.60;;;36.10;52.00;;;;;;5033504;28;20446;-65
2022/06/02 12:18:19;;;;;;;8.63;5.00;;;36.30;52.60;;;;;;5047917;28;20547;-66
2022/06/02 12:21:24;;;;;;;8.13;4.10;;;36.40;51.90;;;;;;5049721;28;20577;-66
2022/06/02 12:24:18;;;;;;;5.60;3.93;;;36.40;51.60;;;;;;5050238;28;20450;-64
2022/06/02 12:27:01;;;;;;;8.73;3.93;;;36.40;51.80;;;;;;5050194;28;20480;-64
2022/06/02 12:29:45;;;;;;;7.57;4.10;;;36.20;52.40;;;;;;5050465;28;20449;-64
2022/06/02 12:32:47;;;;;;;5.07;3.30;;;36.10;52.60;;;;;;5042570;28;20458;-69
2022/06/02 12:35:53;;;;;;;6.97;4.20;;;35.80;51.10;;;;;;5046449;28;20453;-65
2022/06/02 12:38:44;;;;;;;9.80;4.10;;;35.50;51.50;;;;;;5012701;28;20451;-68
2022/06/02 12:41:44;;;;;;;11.17;4.53;;;35.30;52.90;;;;;;5047316;28;20489;-65
2022/06/02 12:44:37;;;;;;;9.67;4.00;;;34.90;54.70;;;;;;5049539;28;20506;-65
2022/06/02 12:47:45;;;;;;;7.10;3.53;;;34.50;55.10;;;;;;5049322;28;20457;-66
2022/06/02 12:50:52;;;;;;;8.60;4.00;;;34.50;55.70;;;;;;5049780;28;20457;-64
2022/06/02 12:53:56;;;;;;;8.40;4.93;;;34.10;55.50;;;;;;5049475;28;20473;-64
2022/06/02 12:56:55;;;;;;;10.37;6.00;;;33.90;56.80;;;;;;5051643;28;20442;-65
2022/06/02 12:59:55;;;;;;;9.07;4.80;;;33.70;58.40;;;;;;5041765;28;20441;-65
2022/06/02 13:02:32;;;;;;;8.40;3.57;;;33.50;57.60;;;;;;5049632;28;20581;-69
2022/06/02 13:05:40;;;;;;;7.80;3.63;;;33.40;56.60;;;;;;5048873;28;20914;-66
2022/06/02 13:08:57;;;;;;;5.80;3.93;;;33.20;58.00;;;;;;5038542;28;20566;-64
2022/06/02 13:11:49;;;;;;;8.47;4.70;;;33.10;58.80;;;;;;5049614;28;20469;-69
2022/06/02 13:15:10;;;;;;;8.30;5.03;;;32.90;60.60;;;;;;5040063;28;20477;-67
2022/06/02 13:17:58;;;;;;;10.13;4.17;;;32.70;63.00;;;;;;5003291;28;20460;-67
2022/06/02 13:21:21;;;;;;;10.43;5.00;;;32.40;63.40;;;;;;5006643;28;20452;-62
2022/06/02 13:24:10;;;;;;;8.80;5.87;;;32.30;63.40;;;;;;5044737;28;20446;-62
2022/06/02 13:27:05;;;;;;;7.50;5.70;;;32.30;64.40;;;;;;5049353;28;20449;-62
2022/06/02 13:30:01;;;;;;;8.60;5.67;;;32.20;64.40;;;;;;5047692;28;20802;-66
2022/06/02 13:32:57;;;;;;;9.53;5.10;;;32.20;64.40;;;;;;5047684;28;20462;-67
2022/06/02 13:36:02;;;;;;;7.50;4.13;;;32.10;64.40;;;;;;5048407;28;20450;-63
2022/06/02 13:39:02;;;;;;;10.10;4.40;;;32.00;64.50;;;;;;5045182;28;20481;-66
2022/06/02 13:42:17;;;;;;;7.20;3.63;;;32.10;65.80;;;;;;5044814;28;20586;-62
2022/06/02 13:45:21;;;;;;;6.77;5.00;;;32.30;64.20;;;;;;4985446;28;21245;-64
2022/06/02 13:48:46;;;;;;;6.10;3.83;;;32.60;64.10;;;;;;5046822;28;20961;-66
2022/06/02 13:51:52;;;;;;;8.33;3.93;;;33.20;62.90;;;;;;5002302;28;21353;-66
2022/06/02 13:57:44;;;;;;;7.10;4.00;;;34.10;60.90;;;;;;5001182;28;20555;-66
2022/06/02 14:00:24;;;;;;;6.10;3.60;;;34.50;60.60;;;;;;5049089;28;20468;-65
2022/06/02 14:03:20;;;;;;;7.90;3.57;;;34.70;60.50;;;;;;5049184;28;20474;-63
2022/06/02 14:06:05;;;;;;;8.00;3.83;;;34.90;59.70;;;;;;5049449;28;20450;-65
2022/06/02 14:09:23;;;;;;;13.17;3.73;;;34.60;60.80;;;;;;5048556;28;20488;-65
2022/06/02 14:11:53;;;;;;;7.13;4.33;;;34.60;62.00;;;;;;5029231;28;20471;-67
2022/06/02 14:14:56;;;;;;;4.80;3.20;;;35.00;62.20;;;;;;5029077;28;20940;-66
2022/06/02 14:17:40;;;;;;;5.13;3.53;;;35.50;60.30;;;;;;5048738;28;20448;-64
2022/06/02 14:20:18;;;;;;;6.00;3.60;;;35.70;59.10;;;;;;5049226;28;21056;-66
2022/06/02 14:22:59;;;;;;;6.63;3.73;;;35.60;58.80;;;;;;5048043;28;20492;-67
2022/06/02 14:25:38;;;;;;;9.10;4.33;;;35.50;60.50;;;;;;5048782;28;20469;-67
2022/06/02 14:28:39;;;;;;;7.00;3.60;;;35.20;61.40;;;;;;5049141;28;20485;-65
2022/06/02 14:31:12;;;;;;;12.00;6.10;;;34.90;61.90;;;;;;5048909;28;20516;-67
2022/06/02 14:33:43;;;;;;;6.93;3.93;;;34.40;65.40;;;;;;5048547;28;20449;-70
2022/06/02 14:36:29;;;;;;;6.50;3.43;;;33.90;65.20;;;;;;5048759;28;20464;-66
2022/06/02 14:39:10;;;;;;;8.00;3.47;;;33.70;67.20;;;;;;5049090;28;20449;-65
2022/06/02 14:41:50;;;;;;;6.10;4.10;;;33.70;68.20;;;;;;5051353;28;20907;-68